createdAt,value
2022-09-02T00:00:29.744Z,935.82
2022-09-02T00:01:29.757Z,935.80
2022-09-02T00:02:29.990Z,935.82
2022-09-02T00:03:29.962Z,935.85
2022-09-02T00:04:29.797Z,935.88
2022-09-02T00:05:29.810Z,935.87
2022-09-02T00:06:29.821Z,935.89
2022-09-02T00:07:29.836Z,935.91
2022-09-02T00:08:29.852Z,935.89
2022-09-02T00:09:29.862Z,935.92
2022-09-02T00:10:29.877Z,935.93
2022-09-02T00:11:29.892Z,935.92
2022-09-02T00:12:29.902Z,935.93
2022-09-02T00:13:29.913Z,935.91
2022-09-02T00:14:29.931Z,935.92
2022-09-02T00:15:29.948Z,935.91
2022-09-02T00:16:30.025Z,935.92
2022-09-02T00:17:29.977Z,935.96
2022-09-02T00:18:29.981Z,935.93
2022-09-02T00:19:29.994Z,935.95
2022-09-02T00:20:30.010Z,935.96
2022-09-02T00:21:30.021Z,935.94
2022-09-02T00:22:30.032Z,935.94
2022-09-02T00:23:30.049Z,935.93
2022-09-02T00:24:30.059Z,935.93
2022-09-02T00:25:30.070Z,935.92
2022-09-02T00:26:30.086Z,935.89
2022-09-02T00:27:30.098Z,935.92
2022-09-02T00:28:30.113Z,935.93
2022-09-02T00:29:30.131Z,935.94
2022-09-02T00:30:30.139Z,935.93
2022-09-02T00:31:30.217Z,935.94
2022-09-02T00:32:30.163Z,935.96
2022-09-02T00:33:30.177Z,935.93
2022-09-02T00:34:30.192Z,935.94
2022-09-02T00:35:30.203Z,935.92
2022-09-02T00:36:30.218Z,935.90
2022-09-02T00:37:30.228Z,935.93
2022-09-02T00:38:30.243Z,935.91
2022-09-02T00:39:30.255Z,935.95
2022-09-02T00:40:30.332Z,935.94
2022-09-02T00:41:30.285Z,935.92
2022-09-02T00:42:30.297Z,935.94
2022-09-02T00:43:30.310Z,935.95
2022-09-02T00:44:30.322Z,935.97
2022-09-02T00:45:30.390Z,936.01
2022-09-02T00:46:30.426Z,935.99
2022-09-02T00:47:30.362Z,936.01
2022-09-02T00:48:30.375Z,936.02
2022-09-02T00:49:30.390Z,936.04
2022-09-02T00:50:30.401Z,936.02
2022-09-02T00:51:30.414Z,936.02
2022-09-02T00:52:30.628Z,936.00
2022-09-02T00:53:30.440Z,935.97
2022-09-02T00:54:30.453Z,935.97
2022-09-02T00:55:30.467Z,935.96
2022-09-02T00:56:30.480Z,935.95
2022-09-02T00:57:30.493Z,935.92
2022-09-02T00:58:30.522Z,935.93
2022-09-02T00:59:30.519Z,935.93
2022-09-02T01:00:34.588Z,935.88
2022-09-02T01:01:30.631Z,935.92
2022-09-02T01:02:30.558Z,935.91
2022-09-02T01:03:30.571Z,935.91
2022-09-02T01:04:30.586Z,935.93
2022-09-02T01:05:30.598Z,935.93
2022-09-02T01:06:30.612Z,935.90
2022-09-02T01:07:30.627Z,935.88
2022-09-02T01:08:30.639Z,935.89
2022-09-02T01:09:30.648Z,935.92
2022-09-02T01:10:30.663Z,935.90
2022-09-02T01:11:30.675Z,935.90
2022-09-02T01:12:30.688Z,935.92
2022-09-02T01:13:30.903Z,935.91
2022-09-02T01:14:30.718Z,935.91
2022-09-02T01:15:30.729Z,935.88
2022-09-02T01:16:30.773Z,935.89
2022-09-02T01:17:30.957Z,935.90
2022-09-02T01:18:30.766Z,935.89
2022-09-02T01:19:30.782Z,935.92
2022-09-02T01:20:30.794Z,935.97
2022-09-02T01:21:31.008Z,935.94
2022-09-02T01:22:30.818Z,935.95
2022-09-02T01:23:31.205Z,935.91
2022-09-02T01:24:30.846Z,935.89
2022-09-02T01:25:30.858Z,935.89
2022-09-02T01:26:30.872Z,935.88
2022-09-02T01:27:30.884Z,935.84
2022-09-02T01:28:30.898Z,935.84
2022-09-02T01:29:30.910Z,935.85
2022-09-02T01:30:30.925Z,935.86
2022-09-02T01:31:30.992Z,935.88
2022-09-02T01:32:30.952Z,935.88
2022-09-02T01:33:31.712Z,935.84
2022-09-02T01:34:30.974Z,935.85
2022-09-02T01:35:30.991Z,935.87
2022-09-02T01:36:31.003Z,935.88
2022-09-02T01:37:31.017Z,935.85
2022-09-02T01:38:31.029Z,935.85
2022-09-02T01:39:31.042Z,935.83
2022-09-02T01:40:31.143Z,935.87
2022-09-02T01:41:31.068Z,935.88
2022-09-02T01:42:31.081Z,935.84
2022-09-02T01:43:31.094Z,935.88
2022-09-02T01:44:31.108Z,935.90
2022-09-02T01:45:31.120Z,935.93
2022-09-02T01:46:31.186Z,935.94
2022-09-02T01:47:31.146Z,935.93
2022-09-02T01:48:31.160Z,935.96
2022-09-02T01:49:31.174Z,935.95
2022-09-02T01:50:31.185Z,935.96
2022-09-02T01:51:31.201Z,935.95
2022-09-02T01:52:31.212Z,935.95
2022-09-02T01:53:31.231Z,935.98
2022-09-02T01:54:31.238Z,935.93
2022-09-02T01:55:31.251Z,935.94
2022-09-02T01:56:31.263Z,935.92
2022-09-02T01:57:31.275Z,935.92
2022-09-02T01:58:31.289Z,935.92
2022-09-02T01:59:31.304Z,935.91
2022-09-02T02:00:31.370Z,935.91
2022-09-02T02:01:31.429Z,935.93
2022-09-02T02:02:31.342Z,935.87
2022-09-02T02:03:31.353Z,935.90
2022-09-02T02:04:31.372Z,935.93
2022-09-02T02:05:31.380Z,935.91
2022-09-02T02:06:31.395Z,935.88
2022-09-02T02:07:31.407Z,935.86
2022-09-02T02:08:31.423Z,935.88
2022-09-02T02:09:31.437Z,935.88
2022-09-02T02:10:31.446Z,935.86
2022-09-02T02:11:31.459Z,935.86
2022-09-02T02:12:31.474Z,935.81
2022-09-02T02:13:31.486Z,935.87
2022-09-02T02:14:31.498Z,935.84
2022-09-02T02:16:12.458Z,935.85
2022-09-02T02:17:12.433Z,935.83
2022-09-02T02:18:12.443Z,935.87
2022-09-02T02:19:12.464Z,935.86
2022-09-02T02:20:12.468Z,935.87
2022-09-02T02:21:12.481Z,935.87
2022-09-02T02:22:12.496Z,935.88
2022-09-02T02:23:12.509Z,935.85
2022-09-02T02:24:12.521Z,935.89
2022-09-02T02:25:12.534Z,935.92
2022-09-02T02:26:12.548Z,935.91
2022-09-02T02:27:12.562Z,935.89
2022-09-02T02:28:12.574Z,935.90
2022-09-02T02:29:12.588Z,935.89
2022-09-02T02:30:12.614Z,935.90
2022-09-02T02:31:12.665Z,935.90
2022-09-02T02:32:12.629Z,935.90
2022-09-02T02:33:12.637Z,935.90
2022-09-02T02:34:12.651Z,935.86
2022-09-02T02:35:12.665Z,935.87
2022-09-02T02:36:12.690Z,935.88
2022-09-02T02:37:12.691Z,935.85
2022-09-02T02:38:14.215Z,935.87
2022-09-02T02:39:12.717Z,935.86
2022-09-02T02:40:12.769Z,935.80
2022-09-02T02:41:12.742Z,935.80
2022-09-02T02:42:12.756Z,935.80
2022-09-02T02:43:12.767Z,935.80
2022-09-02T02:44:12.787Z,935.78
2022-09-02T02:45:14.997Z,935.83
2022-09-02T02:46:12.860Z,935.83
2022-09-02T02:47:12.821Z,935.83
2022-09-02T02:48:12.833Z,935.85
2022-09-02T02:49:12.847Z,935.82
2022-09-02T02:50:12.860Z,935.79
2022-09-02T02:51:12.874Z,935.79
2022-09-02T02:52:12.889Z,935.80
2022-09-02T02:53:13.320Z,935.79
2022-09-02T02:54:12.912Z,935.84
2022-09-02T02:55:12.924Z,935.83
2022-09-02T02:56:12.938Z,935.82
2022-09-02T02:57:12.951Z,935.83
2022-09-02T02:58:12.964Z,935.85
2022-09-02T02:59:12.976Z,935.86
2022-09-02T03:00:12.990Z,935.87
2022-09-02T03:01:13.011Z,935.84
2022-09-02T03:02:13.161Z,935.86
2022-09-02T03:03:13.029Z,935.83
2022-09-02T03:04:13.040Z,935.79
2022-09-02T03:05:13.056Z,935.83
2022-09-02T03:06:13.067Z,935.80
2022-09-02T03:07:13.081Z,935.81
2022-09-02T03:08:13.094Z,935.82
2022-09-02T03:09:13.107Z,935.81
2022-09-02T03:10:13.130Z,935.81
2022-09-02T03:11:13.131Z,935.79
2022-09-02T03:12:13.145Z,935.73
2022-09-02T03:13:13.158Z,935.75
2022-09-02T03:14:13.171Z,935.72
2022-09-02T03:15:13.185Z,935.75
2022-09-02T03:16:13.261Z,935.73
2022-09-02T03:17:13.210Z,935.72
2022-09-02T03:18:13.226Z,935.73
2022-09-02T03:19:13.234Z,935.75
2022-09-02T03:20:13.250Z,935.72
2022-09-02T03:21:13.262Z,935.72
2022-09-02T03:22:13.277Z,935.75
2022-09-02T03:23:13.288Z,935.74
2022-09-02T03:24:13.300Z,935.69
2022-09-02T03:25:13.315Z,935.72
2022-09-02T03:26:13.331Z,935.66
2022-09-02T03:27:13.341Z,935.63
2022-09-02T03:28:13.357Z,935.63
2022-09-02T03:29:13.366Z,935.61
2022-09-02T03:30:13.380Z,935.60
2022-09-02T03:31:13.447Z,935.55
2022-09-02T03:32:14.817Z,935.55
2022-09-02T03:33:13.417Z,935.55
2022-09-02T03:34:13.429Z,935.54
2022-09-02T03:35:13.442Z,935.51
2022-09-02T03:36:13.457Z,935.52
2022-09-02T03:37:13.471Z,935.52
2022-09-02T03:38:13.495Z,935.50
2022-09-02T03:39:13.495Z,935.44
2022-09-02T03:40:13.576Z,935.43
2022-09-02T03:41:13.519Z,935.44
2022-09-02T03:42:19.441Z,935.43
2022-09-02T03:43:13.683Z,935.37
2022-09-02T03:44:13.559Z,935.42
2022-09-02T03:45:13.572Z,935.39
2022-09-02T03:46:13.754Z,935.35
2022-09-02T03:47:13.598Z,935.35
2022-09-02T03:48:13.611Z,935.33
2022-09-02T03:49:13.625Z,935.30
2022-09-02T03:50:13.639Z,935.30
2022-09-02T03:51:13.649Z,935.23
2022-09-02T03:52:13.664Z,935.26
2022-09-02T03:53:18.259Z,935.23
2022-09-02T03:54:13.690Z,935.23
2022-09-02T03:55:13.702Z,935.22
2022-09-02T03:56:13.713Z,935.22
2022-09-02T03:57:13.727Z,935.21
2022-09-02T03:58:13.741Z,935.18
2022-09-02T03:59:13.752Z,935.19
2022-09-02T04:00:13.764Z,935.19
2022-09-02T04:01:13.870Z,935.18
2022-09-02T04:02:13.957Z,935.22
2022-09-02T04:03:13.918Z,935.24
2022-09-02T04:04:13.818Z,935.21
2022-09-02T04:05:15.761Z,935.17
2022-09-02T04:06:13.843Z,935.18
2022-09-02T04:07:13.856Z,935.20
2022-09-02T04:08:13.871Z,935.18
2022-09-02T04:09:13.881Z,935.22
2022-09-02T04:10:13.896Z,935.20
2022-09-02T04:11:13.909Z,935.18
2022-09-02T04:12:13.921Z,935.22
2022-09-02T04:13:13.979Z,935.20
2022-09-02T04:14:13.946Z,935.19
2022-09-02T04:15:13.959Z,935.15
2022-09-02T04:16:14.051Z,935.13
2022-09-02T04:17:13.986Z,935.18
2022-09-02T04:18:13.997Z,935.18
2022-09-02T04:19:14.011Z,935.21
2022-09-02T04:20:14.025Z,935.18
2022-09-02T04:21:14.038Z,935.20
2022-09-02T04:22:14.049Z,935.15
2022-09-02T04:23:14.163Z,935.24
2022-09-02T04:24:14.075Z,935.19
2022-09-02T04:25:14.086Z,935.16
2022-09-02T04:26:14.101Z,935.16
2022-09-02T04:27:14.114Z,935.15
2022-09-02T04:28:14.127Z,935.16
2022-09-02T04:29:14.139Z,935.14
2022-09-02T04:30:14.151Z,935.16
2022-09-02T04:31:14.224Z,935.15
2022-09-02T04:32:14.177Z,935.15
2022-09-02T04:33:14.233Z,935.12
2022-09-02T04:34:14.203Z,935.10
2022-09-02T04:35:14.215Z,935.11
2022-09-02T04:36:14.570Z,935.12
2022-09-02T04:37:14.242Z,935.09
2022-09-02T04:38:14.254Z,935.11
2022-09-02T04:39:14.266Z,935.13
2022-09-02T04:40:14.377Z,935.09
2022-09-02T04:41:14.292Z,935.10
2022-09-02T04:42:14.306Z,935.15
2022-09-02T04:43:14.369Z,935.18
2022-09-02T04:44:14.331Z,935.14
2022-09-02T04:45:14.343Z,935.12
2022-09-02T04:46:14.392Z,935.13
2022-09-02T04:47:14.369Z,935.14
2022-09-02T04:48:14.382Z,935.10
2022-09-02T04:49:14.400Z,935.09
2022-09-02T04:50:14.408Z,935.10
2022-09-02T04:51:14.419Z,935.08
2022-09-02T04:52:14.434Z,935.14
2022-09-02T04:53:14.520Z,935.17
2022-09-02T04:54:14.458Z,935.18
2022-09-02T04:55:14.471Z,935.22
2022-09-02T04:56:14.484Z,935.20
2022-09-02T04:57:14.499Z,935.21
2022-09-02T04:58:14.509Z,935.18
2022-09-02T04:59:14.520Z,935.19
2022-09-02T05:00:14.534Z,935.14
2022-09-02T05:01:14.640Z,935.10
2022-09-02T05:02:14.745Z,935.09
2022-09-02T05:03:14.639Z,935.05
2022-09-02T05:04:14.589Z,935.09
2022-09-02T05:05:14.600Z,935.08
2022-09-02T05:06:14.611Z,935.08
2022-09-02T05:07:14.623Z,935.08
2022-09-02T05:08:14.637Z,935.12
2022-09-02T05:09:14.649Z,935.13
2022-09-02T05:10:14.661Z,935.13
2022-09-02T05:11:14.675Z,935.12
2022-09-02T05:12:14.688Z,935.09
2022-09-02T05:13:14.704Z,935.14
2022-09-02T05:14:14.714Z,935.12
2022-09-02T05:15:14.724Z,935.13
2022-09-02T05:16:14.821Z,935.13
2022-09-02T05:17:14.753Z,935.10
2022-09-02T05:18:14.763Z,935.09
2022-09-02T05:19:14.827Z,935.08
2022-09-02T05:20:14.790Z,935.07
2022-09-02T05:21:14.802Z,935.10
2022-09-02T05:22:14.815Z,935.06
2022-09-02T05:23:14.937Z,935.06
2022-09-02T05:24:14.837Z,935.09
2022-09-02T05:25:14.852Z,935.07
2022-09-02T05:26:14.866Z,935.08
2022-09-02T05:27:14.879Z,935.10
2022-09-02T05:28:14.892Z,935.11
2022-09-02T05:29:14.903Z,935.10
2022-09-02T05:30:14.939Z,935.08
2022-09-02T05:31:15.015Z,935.10
2022-09-02T05:32:14.946Z,935.09
2022-09-02T05:33:15.029Z,935.11
2022-09-02T05:34:14.967Z,935.14
2022-09-02T05:35:14.997Z,935.14
2022-09-02T05:36:14.990Z,935.11
2022-09-02T05:37:15.003Z,935.15
2022-09-02T05:38:15.016Z,935.14
2022-09-02T05:39:15.029Z,935.13
2022-09-02T05:40:15.233Z,935.13
2022-09-02T05:41:15.054Z,935.12
2022-09-02T05:42:15.066Z,935.14
2022-09-02T05:43:15.171Z,935.09
2022-09-02T05:44:15.091Z,935.14
2022-09-02T05:45:16.417Z,935.14
2022-09-02T05:46:15.176Z,935.15
2022-09-02T05:47:15.130Z,935.14
2022-09-02T05:48:15.143Z,935.17
2022-09-02T05:49:15.156Z,935.15
2022-09-02T05:50:15.169Z,935.19
2022-09-02T05:51:15.181Z,935.21
2022-09-02T05:52:15.192Z,935.18
2022-09-02T05:53:15.237Z,935.24
2022-09-02T05:54:15.218Z,935.22
2022-09-02T05:55:15.232Z,935.20
2022-09-02T05:56:15.247Z,935.24
2022-09-02T05:57:15.256Z,935.26
2022-09-02T05:58:15.270Z,935.24
2022-09-02T05:59:15.281Z,935.28
2022-09-02T06:00:18.126Z,935.29
2022-09-02T06:01:15.306Z,935.30
2022-09-02T06:02:15.467Z,935.28
2022-09-02T06:03:15.453Z,935.30
2022-09-02T06:04:15.344Z,935.32
2022-09-02T06:05:15.358Z,935.30
2022-09-02T06:06:15.371Z,935.28
2022-09-02T06:07:15.380Z,935.27
2022-09-02T06:08:15.394Z,935.25
2022-09-02T06:09:15.406Z,935.28
2022-09-02T06:10:15.420Z,935.26
2022-09-02T06:11:15.432Z,935.27
2022-09-02T06:12:15.445Z,935.28
2022-09-02T06:13:15.456Z,935.27
2022-09-02T06:14:15.470Z,935.30
2022-09-02T06:15:15.480Z,935.26
2022-09-02T06:16:15.568Z,935.26
2022-09-02T06:17:15.506Z,935.26
2022-09-02T06:18:15.526Z,935.27
2022-09-02T06:19:19.659Z,935.24
2022-09-02T06:20:15.544Z,935.28
2022-09-02T06:21:15.556Z,935.32
2022-09-02T06:22:15.773Z,935.28
2022-09-02T06:23:15.582Z,935.27
2022-09-02T06:24:15.635Z,935.29
2022-09-02T06:25:15.612Z,935.24
2022-09-02T06:26:15.625Z,935.27
2022-09-02T06:27:15.636Z,935.29
2022-09-02T06:28:15.645Z,935.32
2022-09-02T06:29:15.657Z,935.27
2022-09-02T06:30:15.677Z,935.28
2022-09-02T06:31:15.788Z,935.25
2022-09-02T06:32:15.695Z,935.23
2022-09-02T06:33:15.708Z,935.23
2022-09-02T06:34:15.721Z,935.29
2022-09-02T06:35:15.731Z,935.23
2022-09-02T06:36:15.745Z,935.25
2022-09-02T06:37:15.757Z,935.26
2022-09-02T06:38:15.770Z,935.25
2022-09-02T06:39:15.781Z,935.23
2022-09-02T06:40:15.845Z,935.21
2022-09-02T06:41:15.808Z,935.23
2022-09-02T06:42:15.821Z,935.23
2022-09-02T06:43:15.832Z,935.25
2022-09-02T06:44:15.843Z,935.23
2022-09-02T06:45:15.867Z,935.25
2022-09-02T06:46:15.977Z,935.26
2022-09-02T06:47:15.881Z,935.24
2022-09-02T06:48:15.895Z,935.23
2022-09-02T06:49:15.909Z,935.23
2022-09-02T06:50:15.921Z,935.21
2022-09-02T06:51:15.937Z,935.21
2022-09-02T06:52:15.944Z,935.21
2022-09-02T06:53:15.957Z,935.22
2022-09-02T06:54:16.039Z,935.19
2022-09-02T06:55:15.982Z,935.18
2022-09-02T06:56:15.995Z,935.19
2022-09-02T06:57:16.008Z,935.21
2022-09-02T06:58:16.021Z,935.19
2022-09-02T06:59:16.037Z,935.20
2022-09-02T07:00:16.043Z,935.22
2022-09-02T07:01:16.290Z,935.16
2022-09-02T07:03:16.081Z,935.15
2022-09-02T07:04:16.092Z,935.15
2022-09-02T07:05:16.106Z,935.16
2022-09-02T07:06:16.118Z,935.17
2022-09-02T07:07:16.130Z,935.16
2022-09-02T07:08:16.143Z,935.12
2022-09-02T07:09:16.155Z,935.15
2022-09-02T07:10:16.171Z,935.19
2022-09-02T07:11:16.183Z,935.19
2022-09-02T07:12:16.192Z,935.15
2022-09-02T07:13:16.206Z,935.16
2022-09-02T07:14:16.218Z,935.19
2022-09-02T07:15:16.229Z,935.14
2022-09-02T07:16:18.458Z,935.15
2022-09-02T07:17:16.332Z,935.14
2022-09-02T07:18:16.267Z,935.18
2022-09-02T07:19:20.511Z,935.14
2022-09-02T07:20:16.292Z,935.19
2022-09-02T07:21:16.303Z,935.18
2022-09-02T07:22:18.988Z,935.22
2022-09-02T07:23:16.331Z,935.22
2022-09-02T07:24:16.341Z,935.18
2022-09-02T07:25:16.353Z,935.20
2022-09-02T07:26:16.366Z,935.21
2022-09-02T07:27:16.380Z,935.21
2022-09-02T07:28:16.389Z,935.20
2022-09-02T07:29:16.404Z,935.24
2022-09-02T07:30:16.417Z,935.20
2022-09-02T07:31:16.479Z,935.17
2022-09-02T07:32:16.441Z,935.18
2022-09-02T07:33:16.451Z,935.19
2022-09-02T07:34:16.463Z,935.18
2022-09-02T07:35:16.482Z,935.17
2022-09-02T07:36:16.488Z,935.19
2022-09-02T07:37:16.503Z,935.20
2022-09-02T07:38:16.516Z,935.20
2022-09-02T07:39:16.527Z,935.20
2022-09-02T07:40:16.619Z,935.23
2022-09-02T07:41:16.553Z,935.20
2022-09-02T07:42:16.608Z,935.25
2022-09-02T07:43:16.577Z,935.24
2022-09-02T07:44:16.589Z,935.19
2022-09-02T07:45:16.602Z,935.19
2022-09-02T07:46:16.726Z,935.17
2022-09-02T07:47:16.623Z,935.18
2022-09-02T07:48:16.637Z,935.18
2022-09-02T07:49:19.793Z,935.16
2022-09-02T07:50:19.466Z,935.19
2022-09-02T07:51:16.682Z,935.20
2022-09-02T07:52:16.690Z,935.21
2022-09-02T07:53:16.700Z,935.22
2022-09-02T07:54:16.713Z,935.24
2022-09-02T07:55:16.723Z,935.20
2022-09-02T07:56:16.735Z,935.20
2022-09-02T07:57:16.748Z,935.22
2022-09-02T07:58:16.761Z,935.24
2022-09-02T07:59:16.771Z,935.24
2022-09-02T08:00:16.784Z,935.28
2022-09-02T08:01:21.189Z,935.24
2022-09-02T08:02:16.868Z,935.29
2022-09-02T08:03:16.822Z,935.31
2022-09-02T08:04:16.834Z,935.33
2022-09-02T08:05:16.847Z,935.32
2022-09-02T08:06:16.862Z,935.34
2022-09-02T08:07:16.870Z,935.35
2022-09-02T08:08:16.884Z,935.38
2022-09-02T08:09:16.895Z,935.39
2022-09-02T08:10:16.908Z,935.35
2022-09-02T08:11:16.920Z,935.33
2022-09-02T08:12:20.144Z,935.37
2022-09-02T08:13:16.945Z,935.38
2022-09-02T08:14:16.957Z,935.42
2022-09-02T08:15:17.204Z,935.45
2022-09-02T08:16:17.004Z,935.50
2022-09-02T08:17:16.994Z,935.49
2022-09-02T08:18:21.605Z,935.51
2022-09-02T08:19:17.018Z,935.49
2022-09-02T08:20:17.031Z,935.50
2022-09-02T08:21:17.042Z,935.50
2022-09-02T08:22:17.054Z,935.53
2022-09-02T08:23:36.243Z,935.60
2022-09-02T08:24:17.079Z,935.60
2022-09-02T08:25:17.093Z,935.60
2022-09-02T08:26:17.105Z,935.64
2022-09-02T08:27:17.123Z,935.63
2022-09-02T08:28:17.130Z,935.62
2022-09-02T08:29:17.141Z,935.63
2022-09-02T08:30:17.154Z,935.65
2022-09-02T08:31:17.197Z,935.62
2022-09-02T08:32:17.242Z,935.66
2022-09-02T08:33:17.189Z,935.65
2022-09-02T08:34:17.203Z,935.68
2022-09-02T08:35:17.214Z,935.63
2022-09-02T08:36:17.226Z,935.66
2022-09-02T08:37:17.239Z,935.68
2022-09-02T08:38:17.311Z,935.71
2022-09-02T08:39:17.301Z,935.73
2022-09-02T08:40:17.351Z,935.69
2022-09-02T08:41:17.287Z,935.74
2022-09-02T08:42:17.300Z,935.78
2022-09-02T08:43:17.313Z,935.76
2022-09-02T08:44:17.325Z,935.75
2022-09-02T08:45:17.336Z,935.76
2022-09-02T08:46:17.388Z,935.77
2022-09-02T08:47:17.362Z,935.75
2022-09-02T08:48:17.376Z,935.81
2022-09-02T08:49:17.386Z,935.82
2022-09-02T08:50:17.398Z,935.77
2022-09-02T08:51:17.410Z,935.82
2022-09-02T08:52:17.936Z,935.83
2022-09-02T08:53:17.436Z,935.84
2022-09-02T08:54:17.446Z,935.83
2022-09-02T08:55:17.458Z,935.80
2022-09-02T08:56:17.471Z,935.84
2022-09-02T08:57:17.484Z,935.84
2022-09-02T08:58:17.496Z,935.89
2022-09-02T08:59:17.507Z,935.89
2022-09-02T09:00:17.519Z,935.90
2022-09-02T09:01:17.548Z,935.89
2022-09-02T09:02:17.917Z,935.93
2022-09-02T09:03:17.570Z,935.95
2022-09-02T09:04:17.567Z,935.93
2022-09-02T09:05:17.582Z,935.98
2022-09-02T09:06:17.591Z,935.99
2022-09-02T09:07:17.604Z,935.99
2022-09-02T09:08:21.512Z,936.01
2022-09-02T09:09:17.629Z,936.01
2022-09-02T09:10:17.643Z,936.07
2022-09-02T09:11:17.653Z,936.07
2022-09-02T09:12:17.664Z,936.08
2022-09-02T09:13:17.679Z,936.15
2022-09-02T09:14:17.892Z,936.15
2022-09-02T09:15:17.702Z,936.17
2022-09-02T09:16:17.754Z,936.16
2022-09-02T09:17:17.727Z,936.18
2022-09-02T09:18:17.739Z,936.20
2022-09-02T09:19:17.751Z,936.22
2022-09-02T09:20:17.876Z,936.22
2022-09-02T09:21:17.820Z,936.22
2022-09-02T09:22:17.788Z,936.27
2022-09-02T09:23:21.485Z,936.28
2022-09-02T09:24:17.811Z,936.31
2022-09-02T09:25:17.825Z,936.39
2022-09-02T09:26:17.834Z,936.37
2022-09-02T09:27:17.848Z,936.36
2022-09-02T09:28:17.864Z,936.35
2022-09-02T09:29:17.872Z,936.36
2022-09-02T09:30:17.884Z,936.40
2022-09-02T09:31:17.954Z,936.35
2022-09-02T09:32:17.908Z,936.38
2022-09-02T09:33:17.963Z,936.40
2022-09-02T09:34:17.933Z,936.35
2022-09-02T09:35:17.944Z,936.36
2022-09-02T09:36:17.959Z,936.38
2022-09-02T09:37:17.970Z,936.38
2022-09-02T09:38:17.980Z,936.39
2022-09-02T09:39:17.995Z,936.42
2022-09-02T09:40:18.225Z,936.40
2022-09-02T09:41:18.020Z,936.39
2022-09-02T09:42:18.031Z,936.42
2022-09-02T09:43:18.040Z,936.42
2022-09-02T09:44:18.053Z,936.46
2022-09-02T09:45:18.065Z,936.45
2022-09-02T09:46:18.102Z,936.48
2022-09-02T09:47:18.272Z,936.45
2022-09-02T09:48:18.101Z,936.48
2022-09-02T09:49:18.115Z,936.45
2022-09-02T09:50:18.134Z,936.49
2022-09-02T09:51:18.138Z,936.48
2022-09-02T09:52:18.151Z,936.45
2022-09-02T09:53:18.233Z,936.44
2022-09-02T09:54:18.183Z,936.42
2022-09-02T09:55:22.844Z,936.45
2022-09-02T09:56:18.206Z,936.44
2022-09-02T09:57:18.218Z,936.43
2022-09-02T09:58:18.225Z,936.43
2022-09-02T09:59:18.236Z,936.44
2022-09-02T10:00:18.248Z,936.44
2022-09-02T10:01:18.338Z,936.45
2022-09-02T10:02:18.319Z,936.44
2022-09-02T10:03:18.350Z,936.46
2022-09-02T10:04:41.647Z,936.47
2022-09-02T10:05:18.307Z,936.50
2022-09-02T10:06:18.341Z,936.57
2022-09-02T10:07:18.332Z,936.57
2022-09-02T10:08:18.345Z,936.55
2022-09-02T10:09:18.357Z,936.57
2022-09-02T10:10:18.369Z,936.56
2022-09-02T10:11:18.381Z,936.54
2022-09-02T10:12:18.391Z,936.54
2022-09-02T10:14:18.417Z,936.52
2022-09-02T10:15:18.432Z,936.54
2022-09-02T10:16:18.527Z,936.61
2022-09-02T10:17:18.452Z,936.55
2022-09-02T10:18:18.512Z,936.64
2022-09-02T10:19:18.476Z,936.60
2022-09-02T10:20:18.487Z,936.59
2022-09-02T10:21:18.509Z,936.60
2022-09-02T10:22:18.511Z,936.61
2022-09-02T10:23:18.525Z,936.63
2022-09-02T10:24:18.537Z,936.63
2022-09-02T10:25:18.550Z,936.67
2022-09-02T10:26:18.626Z,936.67
2022-09-02T10:27:18.573Z,936.67
2022-09-02T10:28:18.636Z,936.70
2022-09-02T10:29:18.597Z,936.70
2022-09-02T10:30:19.014Z,936.73
2022-09-02T10:31:18.664Z,936.78
2022-09-02T10:32:18.633Z,936.77
2022-09-02T10:33:18.645Z,936.80
2022-09-02T10:34:18.657Z,936.82
2022-09-02T10:35:18.667Z,936.81
2022-09-02T10:36:23.334Z,936.87
2022-09-02T10:37:18.695Z,936.88
2022-09-02T10:38:18.781Z,936.90
2022-09-02T10:39:18.718Z,936.95
2022-09-02T10:40:18.753Z,936.97
2022-09-02T10:41:19.146Z,936.99
2022-09-02T10:42:18.754Z,936.97
2022-09-02T10:43:18.803Z,936.96
2022-09-02T10:44:18.979Z,936.92
2022-09-02T10:45:18.992Z,936.95
2022-09-02T10:46:18.827Z,936.95
2022-09-02T10:47:18.813Z,936.96
2022-09-02T10:48:18.903Z,936.98
2022-09-02T10:49:18.841Z,936.97
2022-09-02T10:50:18.854Z,937.01
2022-09-02T10:51:18.862Z,937.03
2022-09-02T10:52:18.876Z,937.03
2022-09-02T10:53:18.886Z,937.03
2022-09-02T10:54:18.898Z,936.99
2022-09-02T10:55:18.910Z,936.97
2022-09-02T10:56:18.920Z,936.99
2022-09-02T10:57:18.935Z,937.00
2022-09-02T10:58:18.947Z,936.99
2022-09-02T10:59:18.958Z,937.00
2022-09-02T11:00:18.970Z,937.00
2022-09-02T11:01:19.095Z,937.01
2022-09-02T11:02:18.996Z,936.99
2022-09-02T11:03:19.092Z,936.99
2022-09-02T11:04:24.254Z,936.98
2022-09-02T11:05:19.233Z,936.96
2022-09-02T11:06:19.044Z,936.97
2022-09-02T11:07:19.055Z,936.95
2022-09-02T11:08:19.098Z,937.01
2022-09-02T11:09:19.123Z,937.04
2022-09-02T11:10:19.089Z,937.05
2022-09-02T11:11:19.103Z,937.05
2022-09-02T11:12:19.114Z,937.06
2022-09-02T11:13:19.126Z,937.08
2022-09-02T11:14:20.984Z,937.10
2022-09-02T11:15:19.151Z,937.09
2022-09-02T11:16:19.382Z,937.08
2022-09-02T11:17:19.178Z,937.10
2022-09-02T11:18:19.191Z,937.09
2022-09-02T11:19:19.197Z,937.10
2022-09-02T11:20:19.209Z,937.09
2022-09-02T11:21:19.223Z,937.08
2022-09-02T11:22:19.236Z,937.11
2022-09-02T11:23:19.247Z,937.11
2022-09-02T11:24:19.257Z,937.11
2022-09-02T11:25:19.272Z,937.11
2022-09-02T11:26:19.283Z,937.15
2022-09-02T11:27:32.438Z,937.16
2022-09-02T11:28:19.307Z,937.22
2022-09-02T11:29:19.318Z,937.22
2022-09-02T11:30:19.334Z,937.26
2022-09-02T11:31:19.344Z,937.22
2022-09-02T11:32:19.355Z,937.27
2022-09-02T11:33:19.369Z,937.22
2022-09-02T11:34:19.378Z,937.22
2022-09-02T11:35:19.392Z,937.25
2022-09-02T11:36:19.404Z,937.22
2022-09-02T11:37:19.875Z,937.21
2022-09-02T11:38:19.520Z,937.20
2022-09-02T11:39:30.518Z,937.16
2022-09-02T11:40:33.923Z,937.22
2022-09-02T11:41:36.857Z,937.19
2022-09-02T11:42:19.527Z,937.21
2022-09-02T11:43:22.098Z,937.25
2022-09-02T11:44:19.501Z,937.30
2022-09-02T11:45:19.571Z,937.34
2022-09-02T11:46:19.555Z,937.31
2022-09-02T11:47:19.534Z,937.30
2022-09-02T11:48:19.549Z,937.31
2022-09-02T11:49:19.560Z,937.27
2022-09-02T11:50:19.573Z,937.22
2022-09-02T11:52:19.663Z,937.24
2022-09-02T11:53:20.727Z,937.26
2022-09-02T11:54:19.624Z,937.28
2022-09-02T11:55:19.630Z,937.23
2022-09-02T11:56:19.645Z,937.23
2022-09-02T11:57:19.658Z,937.20
2022-09-02T11:58:19.670Z,937.24
2022-09-02T11:59:19.681Z,937.28
2022-09-02T12:00:19.694Z,937.26
2022-09-02T12:01:24.395Z,937.25
2022-09-02T12:02:19.717Z,937.31
2022-09-02T12:03:38.864Z,937.27
2022-09-02T12:05:19.830Z,937.20
2022-09-02T12:06:19.861Z,937.22
2022-09-02T12:07:19.775Z,937.21
2022-09-02T12:08:19.790Z,937.23
2022-09-02T12:09:19.803Z,937.20
2022-09-02T12:10:19.814Z,937.22
2022-09-02T12:11:19.826Z,937.21
2022-09-02T12:12:19.836Z,937.21
2022-09-02T12:13:19.947Z,937.18
2022-09-02T12:14:19.862Z,937.14
2022-09-02T12:15:20.056Z,937.16
2022-09-02T12:16:19.917Z,937.18
2022-09-02T12:17:19.900Z,937.21
2022-09-02T12:18:21.001Z,937.19
2022-09-02T12:19:19.924Z,937.18
2022-09-02T12:20:19.936Z,937.17
2022-09-02T12:21:23.206Z,937.18
2022-09-02T12:22:19.961Z,937.16
2022-09-02T12:23:19.972Z,937.16
2022-09-02T12:24:19.986Z,937.17
2022-09-02T12:25:19.996Z,937.18
2022-09-02T12:26:20.010Z,937.19
2022-09-02T12:27:20.026Z,937.20
2022-09-02T12:28:24.192Z,937.16
2022-09-02T12:29:20.539Z,937.14
2022-09-02T12:30:20.058Z,937.11
2022-09-02T12:31:22.624Z,937.13
2022-09-02T12:32:20.080Z,937.17
2022-09-02T12:33:20.093Z,937.15